createdAt,value
2018-05-25T00:00:15.051Z,36.63
2018-05-25T00:02:42.604Z,33.67
2018-05-25T00:05:10.056Z,37.53
2018-05-25T00:07:37.524Z,38.50
2018-05-25T00:10:05.004Z,34.00
2018-05-25T00:12:33.248Z,35.90
2018-05-25T00:15:00.716Z,37.00
2018-05-25T00:17:28.327Z,36.17
2018-05-25T00:19:55.817Z,34.87
2018-05-25T00:22:23.287Z,39.00
2018-05-25T00:24:50.823Z,37.20
2018-05-25T00:27:20.005Z,35.47
2018-05-25T00:29:47.471Z,40.07
2018-05-25T00:32:14.948Z,37.20
2018-05-25T00:34:42.416Z,42.33
2018-05-25T00:37:09.879Z,36.20
2018-05-25T00:39:38.137Z,39.50
2018-05-25T00:42:05.601Z,39.83
2018-05-25T00:44:33.152Z,36.20
2018-05-25T00:47:00.767Z,39.07
2018-05-25T00:49:28.268Z,41.00
2018-05-25T00:51:55.745Z,42.13
2018-05-25T00:54:23.964Z,41.77
2018-05-25T00:56:51.444Z,42.33
2018-05-25T00:59:19.571Z,43.87
2018-05-25T01:01:47.149Z,40.40
2018-05-25T01:04:14.643Z,42.97
2018-05-25T01:06:42.104Z,46.67
2018-05-25T01:09:09.568Z,45.10
2018-05-25T01:11:37.035Z,46.77
2018-05-25T01:14:05.259Z,46.20
2018-05-25T01:16:32.731Z,41.97
2018-05-25T01:19:00.188Z,45.63
2018-05-25T01:21:27.663Z,47.50
2018-05-25T01:23:55.128Z,46.37
2018-05-25T01:26:22.589Z,44.17
2018-05-25T01:28:50.061Z,46.83
2018-05-25T01:31:18.472Z,51.03
2018-05-25T01:33:45.932Z,46.60
2018-05-25T01:36:13.400Z,50.07
2018-05-25T01:38:40.944Z,47.13
2018-05-25T01:41:08.433Z,48.00
2018-05-25T01:43:35.896Z,48.80
2018-05-25T01:46:04.871Z,49.83
2018-05-25T01:48:32.336Z,51.37
2018-05-25T01:50:59.907Z,53.90
2018-05-25T01:53:27.377Z,50.93
2018-05-25T01:55:54.836Z,58.43
2018-05-25T01:58:23.112Z,52.80
2018-05-25T02:00:51.349Z,53.83
2018-05-25T02:03:18.816Z,52.57
2018-05-25T02:05:46.289Z,56.63
2018-05-25T02:08:13.751Z,50.27
2018-05-25T02:10:41.305Z,56.83
2018-05-25T02:13:08.778Z,53.53
2018-05-25T02:15:37.016Z,52.33
2018-05-25T02:18:04.488Z,52.80
2018-05-25T02:20:31.955Z,55.10
2018-05-25T02:22:59.412Z,52.63
2018-05-25T02:25:26.880Z,56.30
2018-05-25T02:27:55.117Z,60.30
2018-05-25T02:30:22.589Z,56.83
2018-05-25T02:32:50.056Z,57.00
2018-05-25T02:35:17.521Z,55.03
2018-05-25T02:37:45.069Z,57.80
2018-05-25T02:40:12.531Z,55.83
2018-05-25T02:42:40.752Z,61.70
2018-05-25T02:45:08.217Z,55.93
2018-05-25T02:47:35.726Z,57.03
2018-05-25T02:50:03.997Z,58.77
2018-05-25T02:52:31.545Z,60.10
2018-05-25T02:54:59.050Z,59.47
2018-05-25T02:57:26.519Z,62.77
2018-05-25T02:59:53.992Z,59.60
2018-05-25T03:02:21.457Z,64.10
2018-05-25T03:04:48.934Z,65.53
2018-05-25T03:07:16.400Z,61.27
2018-05-25T03:09:44.653Z,70.53
2018-05-25T03:12:12.128Z,62.90
2018-05-25T03:14:40.349Z,58.07
2018-05-25T03:17:07.845Z,67.17
2018-05-25T03:19:35.408Z,65.57
2018-05-25T03:22:02.869Z,73.30
2018-05-25T03:24:30.420Z,67.83
2018-05-25T03:26:57.880Z,62.13
2018-05-25T03:29:25.378Z,69.70
2018-05-25T03:31:52.805Z,66.77
2018-05-25T03:34:20.256Z,63.37
2018-05-25T03:36:47.808Z,82.83
2018-05-25T03:39:15.272Z,76.13
2018-05-25T03:41:42.748Z,73.97
2018-05-25T03:44:10.996Z,70.23
2018-05-25T03:46:38.457Z,72.93
2018-05-25T03:49:05.942Z,71.00
2018-05-25T03:51:34.189Z,76.10
2018-05-25T03:54:03.199Z,79.23
2018-05-25T03:56:31.425Z,70.20
2018-05-25T03:59:10.809Z,87.40
2018-05-25T04:01:50.925Z,82.30
2018-05-25T04:04:19.017Z,82.17
2018-05-25T04:06:46.577Z,87.60
2018-05-25T04:09:14.032Z,81.80
2018-05-25T04:11:41.589Z,74.47
2018-05-25T04:14:09.179Z,83.37
2018-05-25T04:16:37.424Z,83.43
2018-05-25T04:19:05.665Z,84.03
2018-05-25T04:21:33.126Z,87.63
2018-05-25T04:24:00.592Z,85.80
2018-05-25T04:26:28.072Z,87.77
2018-05-25T04:28:55.584Z,74.57
2018-05-25T04:31:23.032Z,77.63
2018-05-25T04:33:50.509Z,83.30
2018-05-25T04:36:17.975Z,76.77
2018-05-25T04:38:45.556Z,85.20
2018-05-25T04:41:13.020Z,70.23
2018-05-25T04:43:40.475Z,78.80
2018-05-25T04:46:07.949Z,83.73
2018-05-25T04:48:36.176Z,83.37
2018-05-25T04:51:03.639Z,77.70
2018-05-25T04:53:31.126Z,78.43
2018-05-25T04:55:58.681Z,77.53
2018-05-25T04:58:26.144Z,83.50
2018-05-25T05:00:53.694Z,84.53
2018-05-25T05:03:21.161Z,86.53
2018-05-25T05:05:48.624Z,84.63
2018-05-25T05:08:16.862Z,83.10
2018-05-25T05:10:44.319Z,88.47
2018-05-25T05:13:11.800Z,76.53
2018-05-25T05:15:39.352Z,84.97
2018-05-25T05:18:06.820Z,91.23
2018-05-25T05:20:34.284Z,83.10
2018-05-25T05:23:01.805Z,82.80
2018-05-25T05:25:30.000Z,78.43
2018-05-25T05:27:58.961Z,78.60
2018-05-25T05:30:26.432Z,84.53
2018-05-25T05:32:53.892Z,77.67
2018-05-25T05:35:21.371Z,82.43
2018-05-25T05:37:48.920Z,81.97
2018-05-25T05:40:16.516Z,72.10
2018-05-25T05:42:44.760Z,85.10
2018-05-25T05:45:12.232Z,75.73
2018-05-25T05:47:39.701Z,74.53
2018-05-25T05:50:08.001Z,76.43
2018-05-25T05:52:35.448Z,63.57
2018-05-25T05:55:02.922Z,61.60
2018-05-25T05:57:30.385Z,60.33
2018-05-25T05:59:57.844Z,53.33
2018-05-25T06:02:25.313Z,52.10
2018-05-25T06:04:52.770Z,52.53
2018-05-25T06:07:20.250Z,46.70
2018-05-25T06:09:47.719Z,46.60
2018-05-25T06:12:15.957Z,48.17
2018-05-25T06:14:43.418Z,47.57
2018-05-25T06:17:10.875Z,47.00
2018-05-25T06:19:38.348Z,48.90
2018-05-25T06:22:05.835Z,46.37
2018-05-25T06:24:34.058Z,48.53
2018-05-25T06:27:01.639Z,46.27
2018-05-25T06:29:29.135Z,45.73
2018-05-25T06:31:56.661Z,44.93
2018-05-25T06:34:24.215Z,41.13
2018-05-25T06:36:51.686Z,41.33
2018-05-25T06:39:19.903Z,39.53
2018-05-25T06:41:47.386Z,40.07
2018-05-25T06:44:14.848Z,40.80
2018-05-25T06:46:42.300Z,33.77
2018-05-25T06:49:09.771Z,36.50
2018-05-25T06:51:37.228Z,37.23
2018-05-25T06:54:04.693Z,43.47
2018-05-25T06:56:32.169Z,38.47
2018-05-25T06:59:00.396Z,38.37
2018-05-25T07:01:27.876Z,45.40
2018-05-25T07:03:55.392Z,40.43
2018-05-25T07:06:22.792Z,46.37
2018-05-25T07:08:50.274Z,43.13
2018-05-25T07:11:18.513Z,36.40
2018-05-25T07:13:45.972Z,36.23
2018-05-25T07:16:13.436Z,37.03
2018-05-25T07:18:40.916Z,35.17
2018-05-25T07:21:09.144Z,40.80
2018-05-25T07:23:36.602Z,39.03
2018-05-25T07:26:04.178Z,36.83
2018-05-25T07:28:31.634Z,38.20
2018-05-25T07:31:00.599Z,33.07
2018-05-25T07:33:28.145Z,34.93
2018-05-25T07:35:56.362Z,33.90
2018-05-25T07:38:23.834Z,35.77
2018-05-25T07:40:52.084Z,33.43
2018-05-25T07:43:20.322Z,33.73
2018-05-25T07:45:47.796Z,34.60
2018-05-25T07:48:15.280Z,34.70
2018-05-25T07:50:43.507Z,34.10
2018-05-25T07:53:10.993Z,35.47
2018-05-25T07:55:39.456Z,32.10
2018-05-25T07:58:07.008Z,33.70
2018-05-25T08:00:34.485Z,38.00
2018-05-25T08:03:01.952Z,35.50
2018-05-25T08:05:29.421Z,36.37
2018-05-25T08:07:58.416Z,36.73
2018-05-25T08:10:26.654Z,33.90
2018-05-25T08:12:54.116Z,37.27
2018-05-25T08:15:22.534Z,29.67
2018-05-25T08:17:50.008Z,33.50
2018-05-25T08:20:18.230Z,38.33
2018-05-25T08:22:45.720Z,33.47
2018-05-25T08:25:13.196Z,37.27
2018-05-25T08:27:41.428Z,33.33
2018-05-25T08:30:08.901Z,28.83
2018-05-25T08:32:37.149Z,31.50
2018-05-25T08:35:04.637Z,30.37
2018-05-25T08:37:32.097Z,29.47
2018-05-25T08:39:59.572Z,32.20
2018-05-25T08:42:27.827Z,27.27
2018-05-25T08:44:56.801Z,25.47
2018-05-25T08:47:24.291Z,22.33
2018-05-25T08:49:52.535Z,26.00
2018-05-25T08:52:20.103Z,28.93
2018-05-25T08:54:49.085Z,29.50
2018-05-25T08:57:16.557Z,23.03
2018-05-25T08:59:45.547Z,25.50
2018-05-25T09:02:14.534Z,25.13
2018-05-25T09:04:42.005Z,26.93
2018-05-25T09:07:09.464Z,26.87
2018-05-25T09:09:37.017Z,23.33
2018-05-25T09:12:04.481Z,23.87
2018-05-25T09:14:32.036Z,24.13
2018-05-25T09:16:59.500Z,25.67
2018-05-25T09:19:27.136Z,25.93
2018-05-25T09:21:54.748Z,23.57
2018-05-25T09:24:22.173Z,25.30
2018-05-25T09:26:49.720Z,21.47
2018-05-25T09:29:17.180Z,22.20
2018-05-25T09:31:44.657Z,27.50
2018-05-25T09:34:12.888Z,26.17
2018-05-25T09:36:40.365Z,26.23
2018-05-25T09:39:08.605Z,29.70
2018-05-25T09:41:36.083Z,22.87
2018-05-25T09:44:03.553Z,26.03
2018-05-25T09:46:31.023Z,21.67
2018-05-25T09:48:58.476Z,23.27
2018-05-25T09:51:25.954Z,23.13
2018-05-25T09:53:54.234Z,28.90
2018-05-25T09:56:22.467Z,117.73
2018-05-25T09:58:49.937Z,23.17
2018-05-25T10:01:17.412Z,62.10
2018-05-25T10:03:45.656Z,24.27
2018-05-25T10:06:13.192Z,24.23
2018-05-25T10:08:40.703Z,64.27
2018-05-25T10:11:08.117Z,46.33
2018-05-25T10:13:35.580Z,28.67
2018-05-25T10:16:03.056Z,24.10
2018-05-25T10:18:30.522Z,28.40
2018-05-25T10:20:57.981Z,27.17
2018-05-25T10:23:25.448Z,24.77
2018-05-25T10:25:53.681Z,24.37
2018-05-25T10:28:21.148Z,201.13
2018-05-25T10:30:48.621Z,29.30
2018-05-25T10:33:16.084Z,22.53
2018-05-25T10:35:44.308Z,23.93
2018-05-25T10:38:11.785Z,22.80
2018-05-25T10:40:39.256Z,29.93
2018-05-25T10:43:06.738Z,23.47
2018-05-25T10:45:34.986Z,128.00
2018-05-25T10:48:02.436Z,25.60
2018-05-25T10:50:29.904Z,26.43
2018-05-25T10:52:57.365Z,30.53
2018-05-25T10:55:24.831Z,30.70
2018-05-25T10:57:53.080Z,25.23
2018-05-25T11:00:20.553Z,21.70
2018-05-25T11:02:48.037Z,172.60
2018-05-25T11:05:15.491Z,25.33
2018-05-25T11:07:42.952Z,26.27
2018-05-25T11:10:10.436Z,25.23
2018-05-25T11:12:37.888Z,24.37
2018-05-25T11:15:05.386Z,23.90
2018-05-25T11:17:32.856Z,24.07
2018-05-25T11:20:00.329Z,25.30
2018-05-25T11:22:28.560Z,22.90
2018-05-25T11:24:56.032Z,23.77
2018-05-25T11:27:23.497Z,25.90
2018-05-25T11:29:50.968Z,24.20
2018-05-25T11:32:19.188Z,26.70
2018-05-25T11:34:46.662Z,28.93
2018-05-25T11:37:14.250Z,28.53
2018-05-25T11:39:41.798Z,109.23
2018-05-25T11:42:09.265Z,31.20
2018-05-25T11:44:37.528Z,28.00
2018-05-25T11:47:05.000Z,27.30
2018-05-25T11:49:32.463Z,55.17
2018-05-25T11:52:00.692Z,25.70
2018-05-25T11:54:28.281Z,21.13
2018-05-25T11:56:55.748Z,44.87
2018-05-25T11:59:23.981Z,25.57
2018-05-25T12:01:51.509Z,23.33
2018-05-25T12:04:18.932Z,27.67
2018-05-25T12:06:46.388Z,36.43
2018-05-25T12:09:13.837Z,27.80
2018-05-25T12:11:41.305Z,23.63
2018-05-25T12:14:08.843Z,23.80
2018-05-25T12:16:36.316Z,22.70
2018-05-25T12:19:03.784Z,22.90
2018-05-25T12:21:32.019Z,21.47
2018-05-25T12:23:59.488Z,24.50
2018-05-25T12:26:26.950Z,22.10
2018-05-25T12:28:54.419Z,19.93
2018-05-25T12:31:21.877Z,20.37
2018-05-25T12:33:49.351Z,25.53
2018-05-25T12:36:17.587Z,21.03
2018-05-25T12:38:45.056Z,21.43
2018-05-25T12:41:12.512Z,19.87
2018-05-25T12:43:39.996Z,24.50
2018-05-25T12:46:08.232Z,22.30
2018-05-25T12:48:36.500Z,25.30
2018-05-25T12:51:03.977Z,22.47
2018-05-25T12:53:31.440Z,27.33
2018-05-25T12:55:58.993Z,27.13
2018-05-25T12:58:26.462Z,22.67
2018-05-25T13:00:54.693Z,25.20
2018-05-25T13:03:22.180Z,24.47
2018-05-25T13:05:49.735Z,24.80
2018-05-25T13:08:17.199Z,20.23
2018-05-25T13:10:44.762Z,23.93
2018-05-25T13:13:12.314Z,25.50
2018-05-25T13:15:39.794Z,22.07
2018-05-25T13:18:08.046Z,23.07
2018-05-25T13:20:35.608Z,21.13
2018-05-25T13:23:03.077Z,20.63
2018-05-25T13:25:31.308Z,19.93
2018-05-25T13:27:59.110Z,22.57
2018-05-25T13:30:28.100Z,20.60
2018-05-25T13:32:55.556Z,20.13
2018-05-25T13:35:23.028Z,18.03
2018-05-25T13:37:51.256Z,18.60
2018-05-25T13:40:20.577Z,16.90
2018-05-25T13:42:48.140Z,16.97
2018-05-25T13:45:15.700Z,15.80
2018-05-25T13:47:43.271Z,19.57
2018-05-25T13:50:10.815Z,17.50
2018-05-25T13:52:38.299Z,19.07
2018-05-25T13:55:06.524Z,22.50
2018-05-25T13:57:33.996Z,16.80
2018-05-25T14:00:01.461Z,18.70
2018-05-25T14:02:28.912Z,18.13
2018-05-25T14:04:56.393Z,14.37
2018-05-25T14:07:24.622Z,15.57
2018-05-25T14:09:52.081Z,14.20
2018-05-25T14:12:19.550Z,16.27
2018-05-25T14:14:47.024Z,17.23
2018-05-25T14:17:14.488Z,14.90
2018-05-25T14:19:41.956Z,12.77
2018-05-25T14:22:10.198Z,14.67
2018-05-25T14:24:37.660Z,12.20
2018-05-25T14:27:05.144Z,10.90
2018-05-25T14:29:33.372Z,12.57
2018-05-25T14:32:00.833Z,16.00
2018-05-25T14:34:28.334Z,17.37
2018-05-25T14:36:56.566Z,14.57
2018-05-25T14:39:24.049Z,15.10
2018-05-25T14:41:51.504Z,15.50
2018-05-25T14:44:19.003Z,13.30
2018-05-25T14:46:46.478Z,14.70
2018-05-25T14:49:13.936Z,46.83
2018-05-25T14:51:41.408Z,52.10
2018-05-25T14:54:08.896Z,55.63
2018-05-25T14:56:36.377Z,60.57
2018-05-25T14:59:04.670Z,62.47
2018-05-25T15:01:32.076Z,61.93
2018-05-25T15:03:59.547Z,60.40
2018-05-25T15:06:27.782Z,64.27
2018-05-25T15:08:55.259Z,63.93
2018-05-25T15:11:22.764Z,60.23
2018-05-25T15:13:50.220Z,58.00
2018-05-25T15:16:17.683Z,62.57
2018-05-25T15:18:45.146Z,65.93
2018-05-25T15:21:12.639Z,64.83
2018-05-25T15:23:40.132Z,64.57
2018-05-25T15:26:07.552Z,65.90
2018-05-25T15:28:35.029Z,60.17
2018-05-25T15:31:02.697Z,58.40
2018-05-25T15:33:29.956Z,62.43
2018-05-25T15:35:58.197Z,64.97
2018-05-25T15:38:25.665Z,62.83
2018-05-25T15:40:53.138Z,64.03
2018-05-25T15:43:20.596Z,61.67
2018-05-25T15:45:48.832Z,56.37
2018-05-25T15:48:16.301Z,53.47
2018-05-25T15:50:43.751Z,53.60
2018-05-25T15:53:11.337Z,51.83
2018-05-25T15:55:38.804Z,46.20
2018-05-25T15:58:07.073Z,50.33
2018-05-25T16:00:34.537Z,50.87
2018-05-25T16:03:02.795Z,44.60
2018-05-25T16:05:30.273Z,72.80
2018-05-25T16:07:58.525Z,79.10
2018-05-25T16:10:26.012Z,74.93
2018-05-25T16:12:53.476Z,74.10
2018-05-25T16:15:20.949Z,181.47
2018-05-25T16:17:48.412Z,57.37
2018-05-25T16:20:15.876Z,56.80
2018-05-25T16:22:43.350Z,54.77
2018-05-25T16:25:10.813Z,54.90
2018-05-25T16:27:38.287Z,54.30
2018-05-25T16:30:05.744Z,55.77
2018-05-25T16:32:33.217Z,51.27
2018-05-25T16:35:01.458Z,53.40
2018-05-25T16:37:28.916Z,54.70
2018-05-25T16:39:56.376Z,57.50
2018-05-25T16:42:23.852Z,56.57
2018-05-25T16:44:52.096Z,55.80
2018-05-25T16:47:19.556Z,52.37
2018-05-25T16:49:47.025Z,56.80
2018-05-25T16:52:14.501Z,54.03
2018-05-25T16:54:42.744Z,54.03
2018-05-25T16:57:10.221Z,55.90
2018-05-25T16:59:37.687Z,64.70
2018-05-25T17:02:05.193Z,60.73
2018-05-25T17:04:32.677Z,60.90
2018-05-25T17:07:00.249Z,61.20
2018-05-25T17:09:27.712Z,57.60
2018-05-25T17:11:55.216Z,61.00
2018-05-25T17:14:22.677Z,63.40
2018-05-25T17:16:50.143Z,60.87
2018-05-25T17:19:17.597Z,65.50
2018-05-25T17:21:45.064Z,65.77
2018-05-25T17:24:12.525Z,57.07
2018-05-25T17:26:40.001Z,70.97
2018-05-25T17:29:07.463Z,62.03
2018-05-25T17:31:34.927Z,62.30
2018-05-25T17:34:02.400Z,62.63
2018-05-25T17:36:30.628Z,61.87
2018-05-25T17:38:58.871Z,58.93
2018-05-25T17:41:26.336Z,62.50
2018-05-25T17:43:53.797Z,76.27
2018-05-25T17:46:21.275Z,59.93
2018-05-25T17:48:48.729Z,60.27
2018-05-25T17:51:16.205Z,58.30
2018-05-25T17:53:43.683Z,62.43
2018-05-25T17:56:11.900Z,58.40
2018-05-25T17:58:39.376Z,58.10
2018-05-25T18:01:06.833Z,58.90
2018-05-25T18:03:34.305Z,67.87
2018-05-25T18:06:01.760Z,55.60
2018-05-25T18:08:29.215Z,62.73
2018-05-25T18:10:56.691Z,62.73
2018-05-25T18:13:24.157Z,68.97
2018-05-25T18:15:52.384Z,62.60
2018-05-25T18:18:19.872Z,67.40
2018-05-25T18:20:47.334Z,64.97
2018-05-25T18:23:14.816Z,64.60
2018-05-25T18:25:43.181Z,60.20
2018-05-25T18:28:11.699Z,63.37
2018-05-25T18:30:39.198Z,57.43
2018-05-25T18:33:08.197Z,61.60
2018-05-25T18:35:35.749Z,60.43
2018-05-25T18:38:04.082Z,62.20
2018-05-25T18:40:31.586Z,63.67
2018-05-25T18:42:59.856Z,57.80
2018-05-25T18:45:28.856Z,54.33
2018-05-25T18:47:57.821Z,58.90
2018-05-25T18:50:25.407Z,62.00
2018-05-25T18:52:53.632Z,56.50
2018-05-25T18:55:21.105Z,61.00
2018-05-25T18:57:48.561Z,54.67
2018-05-25T19:00:16.047Z,57.30
2018-05-25T19:02:44.329Z,54.13
2018-05-25T19:05:12.564Z,55.80
2018-05-25T19:07:40.041Z,52.20
2018-05-25T19:10:07.521Z,64.87
2018-05-25T19:12:35.071Z,51.83
2018-05-25T19:15:02.633Z,57.27
2018-05-25T19:17:30.905Z,57.07
2018-05-25T19:19:59.935Z,54.17
2018-05-25T19:22:27.470Z,54.60
2018-05-25T19:24:54.937Z,56.77
2018-05-25T19:27:23.185Z,56.60
2018-05-25T19:29:50.645Z,60.87
2018-05-25T19:32:18.132Z,54.73
2018-05-25T19:34:46.381Z,55.90
2018-05-25T19:37:13.946Z,60.43
2018-05-25T19:39:41.500Z,56.97
2018-05-25T19:42:08.956Z,59.30
2018-05-25T19:44:37.236Z,58.10
2018-05-25T19:47:04.788Z,57.90
2018-05-25T19:49:32.248Z,62.97
2018-05-25T19:51:59.722Z,62.73
2018-05-25T19:54:27.961Z,56.93
2018-05-25T19:56:55.438Z,61.20
2018-05-25T19:59:22.905Z,58.17
2018-05-25T20:01:51.152Z,62.07
2018-05-25T20:04:18.612Z,61.53
2018-05-25T20:06:46.148Z,54.03
2018-05-25T20:09:13.628Z,54.37
2018-05-25T20:11:41.108Z,57.97
2018-05-25T20:14:09.395Z,56.57
2018-05-25T20:16:37.631Z,57.53
2018-05-25T20:19:05.095Z,55.43
2018-05-25T20:21:32.556Z,59.07
2018-05-25T20:24:00.015Z,62.17
2018-05-25T20:26:27.545Z,57.57
2018-05-25T20:28:55.001Z,57.63
2018-05-25T20:31:22.469Z,56.87
2018-05-25T20:33:49.937Z,56.40
2018-05-25T20:36:17.404Z,49.30
2018-05-25T20:38:44.875Z,54.83
2018-05-25T20:41:13.097Z,63.13
2018-05-25T20:43:40.550Z,57.40
2018-05-25T20:46:08.032Z,49.73
2018-05-25T20:48:35.505Z,54.37
2018-05-25T20:51:02.981Z,51.53
2018-05-25T20:53:31.205Z,51.13
2018-05-25T20:55:58.664Z,53.73
2018-05-25T20:58:26.135Z,53.77
2018-05-25T21:00:53.588Z,55.97
2018-05-25T21:03:21.065Z,58.13
2018-05-25T21:05:48.536Z,58.87
2018-05-25T21:08:16.768Z,55.37
2018-05-25T21:10:44.250Z,57.63
2018-05-25T21:13:11.713Z,56.20
2018-05-25T21:15:39.190Z,54.87
2018-05-25T21:18:07.420Z,49.53
2018-05-25T21:20:34.880Z,52.90
2018-05-25T21:23:02.364Z,48.90
2018-05-25T21:25:29.835Z,49.70
2018-05-25T21:27:58.067Z,39.60
2018-05-25T21:30:25.535Z,48.13
2018-05-25T21:32:53.011Z,39.80
2018-05-25T21:35:21.465Z,41.10
2018-05-25T21:37:48.936Z,38.70
2018-05-25T21:40:16.396Z,38.50
2018-05-25T21:42:43.914Z,34.77
2018-05-25T21:45:12.104Z,40.37
2018-05-25T21:47:40.345Z,36.10
2018-05-25T21:50:07.812Z,35.53
2018-05-25T21:52:35.268Z,34.33
2018-05-25T21:55:02.746Z,36.63
2018-05-25T21:57:30.216Z,36.50
2018-05-25T21:59:57.680Z,37.83
2018-05-25T22:02:25.153Z,36.20
2018-05-25T22:04:52.628Z,37.90
2018-05-25T22:07:20.861Z,41.40
2018-05-25T22:09:48.340Z,43.00
2018-05-25T22:12:15.813Z,44.30
2018-05-25T22:14:44.054Z,42.03
2018-05-25T22:17:11.521Z,42.60
2018-05-25T22:19:39.063Z,42.73
2018-05-25T22:22:06.533Z,40.10
2018-05-25T22:24:34.029Z,41.20
2018-05-25T22:27:01.481Z,40.57
2018-05-25T22:29:28.956Z,38.43
2018-05-25T22:31:56.428Z,38.60
2018-05-25T22:34:23.893Z,45.20
2018-05-25T22:36:52.127Z,40.97
2018-05-25T22:39:20.360Z,39.83
2018-05-25T22:41:56.133Z,42.33
2018-05-25T22:44:35.445Z,38.23
2018-05-25T22:47:14.892Z,42.80
2018-05-25T22:49:54.283Z,41.30
2018-05-25T22:52:26.859Z,40.87
2018-05-25T22:54:56.902Z,41.33
2018-05-25T22:57:24.383Z,39.67
2018-05-25T22:59:51.848Z,44.23
2018-05-25T23:02:20.092Z,42.20
2018-05-25T23:04:47.543Z,40.70
2018-05-25T23:07:15.026Z,39.47
2018-05-25T23:09:42.480Z,40.03
2018-05-25T23:12:09.952Z,41.57
2018-05-25T23:14:37.408Z,37.43
2018-05-25T23:17:05.639Z,41.57
2018-05-25T23:19:33.108Z,41.77
2018-05-25T23:22:00.573Z,40.40
2018-05-25T23:24:28.061Z,47.87
2018-05-25T23:26:56.299Z,44.33
2018-05-25T23:29:23.763Z,42.30
2018-05-25T23:31:51.208Z,41.43
2018-05-25T23:34:19.313Z,44.80
2018-05-25T23:36:46.783Z,45.97
2018-05-25T23:39:15.012Z,40.67
2018-05-25T23:41:42.476Z,48.53
2018-05-25T23:44:09.941Z,45.20
2018-05-25T23:46:37.403Z,48.00
2018-05-25T23:49:04.876Z,44.90
2018-05-25T23:51:33.113Z,46.43
2018-05-25T23:54:00.573Z,48.23
2018-05-25T23:56:28.081Z,46.67
2018-05-25T23:58:56.305Z,45.70
